sensor_id;sensor_type;location;lat;lon;timestamp;temperature;humidity
13148;DHT22;6639;50.956;4.242;2024-03-02T00:00:50;11.40;99.90
13148;DHT22;6639;50.956;4.242;2024-03-02T00:03:18;11.10;99.90
13148;DHT22;6639;50.956;4.242;2024-03-02T00:05:49;11.00;99.90
13148;DHT22;6639;50.956;4.242;2024-03-02T00:08:23;11.00;99.90
13148;DHT22;6639;50.956;4.242;2024-03-02T00:10:53;10.80;99.90
13148;DHT22;6639;50.956;4.242;2024-03-02T00:13:23;10.60;99.90
13148;DHT22;6639;50.956;4.242;2024-03-02T00:15:53;10.60;99.90
13148;DHT22;6639;50.956;4.242;2024-03-02T00:18:24;10.80;99.90
13148;DHT22;6639;50.956;4.242;2024-03-02T00:20:53;11.00;99.90
13148;DHT22;6639;50.956;4.242;2024-03-02T00:23:21;11.20;99.90
13148;DHT22;6639;50.956;4.242;2024-03-02T00:25:50;11.50;99.90
13148;DHT22;6639;50.956;4.242;2024-03-02T00:28:20;11.40;99.90
13148;DHT22;6639;50.956;4.242;2024-03-02T00:31:04;11.30;99.90
13148;DHT22;6639;50.956;4.242;2024-03-02T00:33:33;11.20;99.90
13148;DHT22;6639;50.956;4.242;2024-03-02T00:36:01;11.10;99.90
13148;DHT22;6639;50.956;4.242;2024-03-02T00:38:29;11.30;99.90
13148;DHT22;6639;50.956;4.242;2024-03-02T00:40:58;11.50;99.90
13148;DHT22;6639;50.956;4.242;2024-03-02T00:43:58;11.10;99.90
13148;DHT22;6639;50.956;4.242;2024-03-02T00:46:28;11.20;99.90
13148;DHT22;6639;50.956;4.242;2024-03-02T00:48:57;11.20;99.90
13148;DHT22;6639;50.956;4.242;2024-03-02T00:51:25;11.30;99.90
13148;DHT22;6639;50.956;4.242;2024-03-02T00:53:54;11.40;99.90
13148;DHT22;6639;50.956;4.242;2024-03-02T00:56:22;10.80;99.90
13148;DHT22;6639;50.956;4.242;2024-03-02T00:58:50;10.80;99.90
13148;DHT22;6639;50.956;4.242;2024-03-02T01:01:17;11.10;99.90
13148;DHT22;6639;50.956;4.242;2024-03-02T01:03:46;11.10;99.90
13148;DHT22;6639;50.956;4.242;2024-03-02T01:06:14;11.40;99.90
13148;DHT22;6639;50.956;4.242;2024-03-02T01:08:42;11.40;99.90
13148;DHT22;6639;50.956;4.242;2024-03-02T01:11:09;11.50;99.90
13148;DHT22;6639;50.956;4.242;2024-03-02T01:13:37;11.60;99.90
13148;DHT22;6639;50.956;4.242;2024-03-02T01:16:04;11.40;99.90
13148;DHT22;6639;50.956;4.242;2024-03-02T01:18:31;11.60;99.90
13148;DHT22;6639;50.956;4.242;2024-03-02T01:20:58;11.40;99.90
13148;DHT22;6639;50.956;4.242;2024-03-02T01:23:25;11.60;99.90
13148;DHT22;6639;50.956;4.242;2024-03-02T01:25:52;11.20;99.90
13148;DHT22;6639;50.956;4.242;2024-03-02T01:28:20;10.80;99.90
13148;DHT22;6639;50.956;4.242;2024-03-02T01:30:47;10.90;99.90
13148;DHT22;6639;50.956;4.242;2024-03-02T01:33:15;10.90;99.90
13148;DHT22;6639;50.956;4.242;2024-03-02T01:35:41;10.90;99.90
13148;DHT22;6639;50.956;4.242;2024-03-02T01:38:10;11.10;99.90
13148;DHT22;6639;50.956;4.242;2024-03-02T01:40:38;11.00;99.90
13148;DHT22;6639;50.956;4.242;2024-03-02T01:43:05;10.80;99.90
13148;DHT22;6639;50.956;4.242;2024-03-02T01:45:32;10.70;99.90
13148;DHT22;6639;50.956;4.242;2024-03-02T01:48:01;10.60;99.90
13148;DHT22;6639;50.956;4.242;2024-03-02T01:50:28;11.00;99.90
13148;DHT22;6639;50.956;4.242;2024-03-02T01:52:56;11.10;99.90
13148;DHT22;6639;50.956;4.242;2024-03-02T01:55:24;10.70;99.90
13148;DHT22;6639;50.956;4.242;2024-03-02T01:57:52;10.80;99.90
13148;DHT22;6639;50.956;4.242;2024-03-02T02:00:20;10.80;99.90
13148;DHT22;6639;50.956;4.242;2024-03-02T02:02:48;11.20;99.90
13148;DHT22;6639;50.956;4.242;2024-03-02T02:05:15;11.10;99.90
13148;DHT22;6639;50.956;4.242;2024-03-02T02:07:42;11.30;99.90
13148;DHT22;6639;50.956;4.242;2024-03-02T02:10:10;11.50;99.90
13148;DHT22;6639;50.956;4.242;2024-03-02T02:12:38;11.30;99.90
13148;DHT22;6639;50.956;4.242;2024-03-02T02:15:24;11.30;99.90
13148;DHT22;6639;50.956;4.242;2024-03-02T02:17:51;11.70;99.90
13148;DHT22;6639;50.956;4.242;2024-03-02T02:20:18;11.80;99.90
13148;DHT22;6639;50.956;4.242;2024-03-02T02:23:01;12.00;99.90
13148;DHT22;6639;50.956;4.242;2024-03-02T02:25:29;11.30;99.90
13148;DHT22;6639;50.956;4.242;2024-03-02T02:27:56;11.40;99.90
13148;DHT22;6639;50.956;4.242;2024-03-02T02:30:25;11.40;99.90
13148;DHT22;6639;50.956;4.242;2024-03-02T02:32:52;11.50;99.90
13148;DHT22;6639;50.956;4.242;2024-03-02T02:35:19;11.20;99.90
13148;DHT22;6639;50.956;4.242;2024-03-02T02:37:47;11.10;99.90
13148;DHT22;6639;50.956;4.242;2024-03-02T02:40:16;11.30;99.90
13148;DHT22;6639;50.956;4.242;2024-03-02T02:42:44;11.10;99.90
13148;DHT22;6639;50.956;4.242;2024-03-02T02:45:11;11.40;99.90
13148;DHT22;6639;50.956;4.242;2024-03-02T02:47:39;11.50;99.90
13148;DHT22;6639;50.956;4.242;2024-03-02T02:50:08;11.40;99.90
13148;DHT22;6639;50.956;4.242;2024-03-02T02:52:35;11.10;99.90
13148;DHT22;6639;50.956;4.242;2024-03-02T02:55:06;11.10;99.90
13148;DHT22;6639;50.956;4.242;2024-03-02T02:57:34;11.30;99.90
13148;DHT22;6639;50.956;4.242;2024-03-02T03:00:05;11.10;99.90
13148;DHT22;6639;50.956;4.242;2024-03-02T03:02:38;11.00;99.90
13148;DHT22;6639;50.956;4.242;2024-03-02T03:05:07;11.00;99.90
13148;DHT22;6639;50.956;4.242;2024-03-02T03:07:34;10.90;99.90
13148;DHT22;6639;50.956;4.242;2024-03-02T03:10:03;10.60;99.90
13148;DHT22;6639;50.956;4.242;2024-03-02T03:12:30;10.70;99.90
13148;DHT22;6639;50.956;4.242;2024-03-02T03:14:59;10.80;99.90
13148;DHT22;6639;50.956;4.242;2024-03-02T03:17:26;11.00;99.90
13148;DHT22;6639;50.956;4.242;2024-03-02T03:19:53;11.20;99.90
13148;DHT22;6639;50.956;4.242;2024-03-02T03:22:20;10.80;99.90
13148;DHT22;6639;50.956;4.242;2024-03-02T03:24:47;10.90;99.90
13148;DHT22;6639;50.956;4.242;2024-03-02T03:27:14;10.90;99.90
13148;DHT22;6639;50.956;4.242;2024-03-02T03:29:41;11.10;99.90
13148;DHT22;6639;50.956;4.242;2024-03-02T03:32:10;11.00;99.90
13148;DHT22;6639;50.956;4.242;2024-03-02T03:34:37;11.30;99.90
13148;DHT22;6639;50.956;4.242;2024-03-02T03:37:04;10.80;99.90
13148;DHT22;6639;50.956;4.242;2024-03-02T03:39:30;11.20;99.90
13148;DHT22;6639;50.956;4.242;2024-03-02T03:41:57;11.50;99.90
13148;DHT22;6639;50.956;4.242;2024-03-02T03:44:24;11.60;99.90
13148;DHT22;6639;50.956;4.242;2024-03-02T03:46:51;11.70;99.90
13148;DHT22;6639;50.956;4.242;2024-03-02T03:49:19;11.40;99.90
13148;DHT22;6639;50.956;4.242;2024-03-02T03:51:46;11.00;99.90
13148;DHT22;6639;50.956;4.242;2024-03-02T03:54:13;11.40;99.90
13148;DHT22;6639;50.956;4.242;2024-03-02T03:56:40;11.60;99.90
13148;DHT22;6639;50.956;4.242;2024-03-02T03:59:07;11.60;99.90
13148;DHT22;6639;50.956;4.242;2024-03-02T04:01:34;11.70;99.90
13148;DHT22;6639;50.956;4.242;2024-03-02T04:04:00;11.80;99.90
13148;DHT22;6639;50.956;4.242;2024-03-02T04:06:30;11.60;99.90
13148;DHT22;6639;50.956;4.242;2024-03-02T04:08:57;11.60;99.90
13148;DHT22;6639;50.956;4.242;2024-03-02T04:11:24;11.60;99.90
13148;DHT22;6639;50.956;4.242;2024-03-02T04:13:51;11.40;99.90
13148;DHT22;6639;50.956;4.242;2024-03-02T04:16:18;11.20;99.90
13148;DHT22;6639;50.956;4.242;2024-03-02T04:18:45;11.70;99.90
13148;DHT22;6639;50.956;4.242;2024-03-02T04:21:12;11.90;99.90
13148;DHT22;6639;50.956;4.242;2024-03-02T04:23:40;11.30;99.90
13148;DHT22;6639;50.956;4.242;2024-03-02T04:26:07;11.70;99.90
13148;DHT22;6639;50.956;4.242;2024-03-02T04:28:33;11.40;99.90
13148;DHT22;6639;50.956;4.242;2024-03-02T04:31:00;11.60;99.90
13148;DHT22;6639;50.956;4.242;2024-03-02T04:33:27;11.90;99.90
13148;DHT22;6639;50.956;4.242;2024-03-02T04:35:54;11.40;99.90
13148;DHT22;6639;50.956;4.242;2024-03-02T04:38:23;11.40;99.90
13148;DHT22;6639;50.956;4.242;2024-03-02T04:40:51;11.30;99.90
13148;DHT22;6639;50.956;4.242;2024-03-02T04:43:18;11.10;99.90
13148;DHT22;6639;50.956;4.242;2024-03-02T04:45:45;10.60;99.90
13148;DHT22;6639;50.956;4.242;2024-03-02T04:48:12;10.60;99.90
13148;DHT22;6639;50.956;4.242;2024-03-02T04:50:40;10.80;99.90
13148;DHT22;6639;50.956;4.242;2024-03-02T04:53:07;10.80;99.90
13148;DHT22;6639;50.956;4.242;2024-03-02T04:55:34;10.70;99.90
13148;DHT22;6639;50.956;4.242;2024-03-02T04:58:36;10.90;99.90
13148;DHT22;6639;50.956;4.242;2024-03-02T05:01:04;11.00;99.90
13148;DHT22;6639;50.956;4.242;2024-03-02T05:03:30;10.50;99.90
13148;DHT22;6639;50.956;4.242;2024-03-02T05:06:00;10.50;99.90
13148;DHT22;6639;50.956;4.242;2024-03-02T05:08:27;10.60;99.90
13148;DHT22;6639;50.956;4.242;2024-03-02T05:10:54;10.50;99.90
13148;DHT22;6639;50.956;4.242;2024-03-02T05:13:42;10.40;99.90
13148;DHT22;6639;50.956;4.242;2024-03-02T05:16:09;10.30;99.90
13148;DHT22;6639;50.956;4.242;2024-03-02T05:18:37;10.40;99.90
13148;DHT22;6639;50.956;4.242;2024-03-02T05:21:04;10.10;99.90
13148;DHT22;6639;50.956;4.242;2024-03-02T05:23:31;10.30;99.90
13148;DHT22;6639;50.956;4.242;2024-03-02T05:25:58;10.50;99.90
13148;DHT22;6639;50.956;4.242;2024-03-02T05:28:25;11.00;99.90
13148;DHT22;6639;50.956;4.242;2024-03-02T05:30:54;11.20;99.90
13148;DHT22;6639;50.956;4.242;2024-03-02T05:33:21;10.90;99.90
13148;DHT22;6639;50.956;4.242;2024-03-02T05:35:49;10.90;99.90
13148;DHT22;6639;50.956;4.242;2024-03-02T05:38:16;11.10;99.90
13148;DHT22;6639;50.956;4.242;2024-03-02T05:40:43;10.90;99.90
13148;DHT22;6639;50.956;4.242;2024-03-02T05:43:10;11.20;99.90
13148;DHT22;6639;50.956;4.242;2024-03-02T05:45:37;11.10;99.90
13148;DHT22;6639;50.956;4.242;2024-03-02T05:48:07;11.40;99.90
13148;DHT22;6639;50.956;4.242;2024-03-02T05:50:34;11.60;99.90
13148;DHT22;6639;50.956;4.242;2024-03-02T05:53:01;11.40;99.90
13148;DHT22;6639;50.956;4.242;2024-03-02T05:55:28;11.20;99.90
13148;DHT22;6639;50.956;4.242;2024-03-02T05:57:55;11.20;99.90
13148;DHT22;6639;50.956;4.242;2024-03-02T06:00:37;11.20;99.90
13148;DHT22;6639;50.956;4.242;2024-03-02T06:03:05;11.50;99.90
13148;DHT22;6639;50.956;4.242;2024-03-02T06:05:33;11.30;99.90
13148;DHT22;6639;50.956;4.242;2024-03-02T06:08:00;10.90;99.90
13148;DHT22;6639;50.956;4.242;2024-03-02T06:10:27;11.20;99.90
13148;DHT22;6639;50.956;4.242;2024-03-02T06:12:54;11.20;99.90
13148;DHT22;6639;50.956;4.242;2024-03-02T06:15:21;11.10;99.90
13148;DHT22;6639;50.956;4.242;2024-03-02T06:17:48;10.90;99.90
13148;DHT22;6639;50.956;4.242;2024-03-02T06:20:16;11.10;99.90
13148;DHT22;6639;50.956;4.242;2024-03-02T06:22:43;11.00;99.90
13148;DHT22;6639;50.956;4.242;2024-03-02T06:25:09;11.00;99.90
13148;DHT22;6639;50.956;4.242;2024-03-02T06:27:37;10.90;99.90
13148;DHT22;6639;50.956;4.242;2024-03-02T06:30:04;10.40;99.90
13148;DHT22;6639;50.956;4.242;2024-03-02T06:32:31;10.60;99.90
13148;DHT22;6639;50.956;4.242;2024-03-02T06:34:58;10.80;99.90
13148;DHT22;6639;50.956;4.242;2024-03-02T06:37:26;11.00;99.90
13148;DHT22;6639;50.956;4.242;2024-03-02T06:39:53;11.00;99.90
13148;DHT22;6639;50.956;4.242;2024-03-02T06:42:20;11.20;99.90
13148;DHT22;6639;50.956;4.242;2024-03-02T06:44:47;11.40;99.90
13148;DHT22;6639;50.956;4.242;2024-03-02T06:47:14;11.70;99.90
13148;DHT22;6639;50.956;4.242;2024-03-02T06:49:42;11.70;99.90
13148;DHT22;6639;50.956;4.242;2024-03-02T06:52:09;11.70;99.90
13148;DHT22;6639;50.956;4.242;2024-03-02T06:54:38;11.50;99.90
13148;DHT22;6639;50.956;4.242;2024-03-02T06:57:05;11.50;99.90
13148;DHT22;6639;50.956;4.242;2024-03-02T06:59:31;11.40;99.90
13148;DHT22;6639;50.956;4.242;2024-03-02T07:01:59;11.30;99.90
13148;DHT22;6639;50.956;4.242;2024-03-02T07:04:26;11.00;99.90
13148;DHT22;6639;50.956;4.242;2024-03-02T07:06:55;11.20;99.90
13148;DHT22;6639;50.956;4.242;2024-03-02T07:09:23;11.40;99.90
13148;DHT22;6639;50.956;4.242;2024-03-02T07:11:52;11.80;99.90
13148;DHT22;6639;50.956;4.242;2024-03-02T07:14:19;11.60;99.90
13148;DHT22;6639;50.956;4.242;2024-03-02T07:16:46;11.50;99.90
13148;DHT22;6639;50.956;4.242;2024-03-02T07:19:13;11.70;99.90
13148;DHT22;6639;50.956;4.242;2024-03-02T07:21:40;12.10;99.90
13148;DHT22;6639;50.956;4.242;2024-03-02T07:24:08;12.00;99.90
13148;DHT22;6639;50.956;4.242;2024-03-02T07:26:39;12.10;99.90
13148;DHT22;6639;50.956;4.242;2024-03-02T07:29:09;12.10;99.90
13148;DHT22;6639;50.956;4.242;2024-03-02T07:31:36;12.50;99.90
13148;DHT22;6639;50.956;4.242;2024-03-02T07:34:03;12.40;99.90
13148;DHT22;6639;50.956;4.242;2024-03-02T07:36:30;12.00;99.90
13148;DHT22;6639;50.956;4.242;2024-03-02T07:38:57;12.50;99.90
13148;DHT22;6639;50.956;4.242;2024-03-02T07:41:24;12.90;99.90
13148;DHT22;6639;50.956;4.242;2024-03-02T07:43:51;12.80;99.90
13148;DHT22;6639;50.956;4.242;2024-03-02T07:46:20;12.70;99.90
13148;DHT22;6639;50.956;4.242;2024-03-02T07:48:47;13.10;99.90
13148;DHT22;6639;50.956;4.242;2024-03-02T07:51:17;13.10;99.90
13148;DHT22;6639;50.956;4.242;2024-03-02T07:53:44;13.00;99.90
13148;DHT22;6639;50.956;4.242;2024-03-02T07:56:11;13.40;99.90
13148;DHT22;6639;50.956;4.242;2024-03-02T07:58:38;13.80;99.90
13148;DHT22;6639;50.956;4.242;2024-03-02T08:01:04;14.00;99.90
13148;DHT22;6639;50.956;4.242;2024-03-02T08:03:33;14.10;99.90
13148;DHT22;6639;50.956;4.242;2024-03-02T08:06:00;14.30;99.90
13148;DHT22;6639;50.956;4.242;2024-03-02T08:08:27;14.30;99.90
13148;DHT22;6639;50.956;4.242;2024-03-02T08:10:54;14.50;99.90
13148;DHT22;6639;50.956;4.242;2024-03-02T08:13:20;14.60;99.90
13148;DHT22;6639;50.956;4.242;2024-03-02T08:15:47;14.60;99.90
13148;DHT22;6639;50.956;4.242;2024-03-02T08:18:14;14.90;99.90
13148;DHT22;6639;50.956;4.242;2024-03-02T08:20:43;15.10;99.90
13148;DHT22;6639;50.956;4.242;2024-03-02T08:23:10;15.30;99.90
13148;DHT22;6639;50.956;4.242;2024-03-02T08:25:37;15.40;99.90
13148;DHT22;6639;50.956;4.242;2024-03-02T08:28:04;15.40;99.90
13148;DHT22;6639;50.956;4.242;2024-03-02T08:30:31;15.50;99.90
13148;DHT22;6639;50.956;4.242;2024-03-02T08:32:58;15.50;99.90
13148;DHT22;6639;50.956;4.242;2024-03-02T08:35:25;15.40;99.90
13148;DHT22;6639;50.956;4.242;2024-03-02T08:37:53;15.30;99.90
13148;DHT22;6639;50.956;4.242;2024-03-02T08:40:20;15.30;99.90
13148;DHT22;6639;50.956;4.242;2024-03-02T08:42:47;15.40;99.90
13148;DHT22;6639;50.956;4.242;2024-03-02T08:45:14;15.50;99.90
13148;DHT22;6639;50.956;4.242;2024-03-02T08:47:42;15.30;99.90
13148;DHT22;6639;50.956;4.242;2024-03-02T08:50:09;15.00;99.90
13148;DHT22;6639;50.956;4.242;2024-03-02T08:52:36;15.60;99.90
13148;DHT22;6639;50.956;4.242;2024-03-02T08:55:05;15.60;99.90
13148;DHT22;6639;50.956;4.242;2024-03-02T08:57:32;15.70;99.90
13148;DHT22;6639;50.956;4.242;2024-03-02T09:00:00;16.20;99.90
13148;DHT22;6639;50.956;4.242;2024-03-02T09:02:27;16.40;99.90
13148;DHT22;6639;50.956;4.242;2024-03-02T09:04:54;15.50;99.90
13148;DHT22;6639;50.956;4.242;2024-03-02T09:07:21;15.50;99.90
13148;DHT22;6639;50.956;4.242;2024-03-02T09:09:48;15.40;99.90
13148;DHT22;6639;50.956;4.242;2024-03-02T09:12:16;15.40;99.90
13148;DHT22;6639;50.956;4.242;2024-03-02T09:14:44;15.40;99.90
13148;DHT22;6639;50.956;4.242;2024-03-02T09:17:11;15.70;99.90
13148;DHT22;6639;50.956;4.242;2024-03-02T09:19:40;15.70;99.90
13148;DHT22;6639;50.956;4.242;2024-03-02T09:22:07;15.80;99.90
13148;DHT22;6639;50.956;4.242;2024-03-02T09:24:35;16.00;99.90
13148;DHT22;6639;50.956;4.242;2024-03-02T09:27:02;16.50;99.90
13148;DHT22;6639;50.956;4.242;2024-03-02T09:29:31;16.40;99.90
13148;DHT22;6639;50.956;4.242;2024-03-02T09:31:58;16.60;99.90
13148;DHT22;6639;50.956;4.242;2024-03-02T09:34:26;17.10;99.90
13148;DHT22;6639;50.956;4.242;2024-03-02T09:36:54;17.10;99.90
13148;DHT22;6639;50.956;4.242;2024-03-02T09:39:21;17.10;99.90
13148;DHT22;6639;50.956;4.242;2024-03-02T09:41:48;17.10;99.90
13148;DHT22;6639;50.956;4.242;2024-03-02T09:44:15;17.00;99.90
13148;DHT22;6639;50.956;4.242;2024-03-02T09:46:43;16.80;99.90
13148;DHT22;6639;50.956;4.242;2024-03-02T09:49:13;15.90;99.90
13148;DHT22;6639;50.956;4.242;2024-03-02T09:51:40;15.40;99.90
13148;DHT22;6639;50.956;4.242;2024-03-02T09:54:13;15.40;99.90
13148;DHT22;6639;50.956;4.242;2024-03-02T09:56:41;15.80;99.90
13148;DHT22;6639;50.956;4.242;2024-03-02T09:59:08;15.50;99.90
13148;DHT22;6639;50.956;4.242;2024-03-02T10:01:36;15.40;99.90
13148;DHT22;6639;50.956;4.242;2024-03-02T10:04:05;15.10;99.90
13148;DHT22;6639;50.956;4.242;2024-03-02T10:06:34;15.20;99.90
13148;DHT22;6639;50.956;4.242;2024-03-02T10:09:00;15.10;99.90
13148;DHT22;6639;50.956;4.242;2024-03-02T10:11:29;15.00;99.90
13148;DHT22;6639;50.956;4.242;2024-03-02T10:14:07;14.90;99.90
13148;DHT22;6639;50.956;4.242;2024-03-02T10:16:35;14.90;99.90
13148;DHT22;6639;50.956;4.242;2024-03-02T10:19:21;15.00;99.90
13148;DHT22;6639;50.956;4.242;2024-03-02T10:21:50;15.40;99.90
13148;DHT22;6639;50.956;4.242;2024-03-02T10:24:17;15.30;99.90
13148;DHT22;6639;50.956;4.242;2024-03-02T10:26:45;15.10;99.90
13148;DHT22;6639;50.956;4.242;2024-03-02T10:29:13;15.10;99.90
13148;DHT22;6639;50.956;4.242;2024-03-02T10:31:41;15.50;99.90
13148;DHT22;6639;50.956;4.242;2024-03-02T10:34:09;15.50;99.90
13148;DHT22;6639;50.956;4.242;2024-03-02T10:36:40;15.70;99.90
13148;DHT22;6639;50.956;4.242;2024-03-02T10:39:08;16.00;99.90
13148;DHT22;6639;50.956;4.242;2024-03-02T10:41:36;16.10;99.90
13148;DHT22;6639;50.956;4.242;2024-03-02T10:44:04;16.60;99.90
13148;DHT22;6639;50.956;4.242;2024-03-02T10:46:32;16.10;99.90
13148;DHT22;6639;50.956;4.242;2024-03-02T10:48:59;16.40;99.90
13148;DHT22;6639;50.956;4.242;2024-03-02T10:51:28;16.30;99.90
13148;DHT22;6639;50.956;4.242;2024-03-02T10:53:59;15.60;99.90
13148;DHT22;6639;50.956;4.242;2024-03-02T10:56:28;15.30;99.90
13148;DHT22;6639;50.956;4.242;2024-03-02T10:59:02;15.50;99.90
13148;DHT22;6639;50.956;4.242;2024-03-02T11:01:31;15.40;99.90
13148;DHT22;6639;50.956;4.242;2024-03-02T11:03:59;15.50;99.90
13148;DHT22;6639;50.956;4.242;2024-03-02T11:06:28;15.40;99.90
13148;DHT22;6639;50.956;4.242;2024-03-02T11:09:00;15.50;99.90
13148;DHT22;6639;50.956;4.242;2024-03-02T11:11:32;15.70;99.90
13148;DHT22;6639;50.956;4.242;2024-03-02T11:14:04;15.90;99.90
13148;DHT22;6639;50.956;4.242;2024-03-02T11:16:35;16.10;99.90
13148;DHT22;6639;50.956;4.242;2024-03-02T11:19:06;16.30;99.90
13148;DHT22;6639;50.956;4.242;2024-03-02T11:21:35;16.50;99.90
13148;DHT22;6639;50.956;4.242;2024-03-02T11:24:31;16.40;99.90
13148;DHT22;6639;50.956;4.242;2024-03-02T11:26:59;16.20;99.90
13148;DHT22;6639;50.956;4.242;2024-03-02T11:29:46;16.30;99.90
13148;DHT22;6639;50.956;4.242;2024-03-02T11:32:18;16.80;99.90
13148;DHT22;6639;50.956;4.242;2024-03-02T11:34:49;16.40;99.90
13148;DHT22;6639;50.956;4.242;2024-03-02T11:37:18;16.00;99.90
13148;DHT22;6639;50.956;4.242;2024-03-02T11:39:49;16.00;99.90
13148;DHT22;6639;50.956;4.242;2024-03-02T11:42:16;15.70;99.90
13148;DHT22;6639;50.956;4.242;2024-03-02T11:44:46;15.70;99.90
13148;DHT22;6639;50.956;4.242;2024-03-02T11:47:15;16.00;99.90
13148;DHT22;6639;50.956;4.242;2024-03-02T11:49:44;15.70;99.90
13148;DHT22;6639;50.956;4.242;2024-03-02T11:52:13;15.90;99.90
13148;DHT22;6639;50.956;4.242;2024-03-02T11:54:42;16.20;99.90
13148;DHT22;6639;50.956;4.242;2024-03-02T11:57:16;16.40;99.90
13148;DHT22;6639;50.956;4.242;2024-03-02T11:59:43;16.10;99.90
13148;DHT22;6639;50.956;4.242;2024-03-02T12:02:15;15.70;99.90
13148;DHT22;6639;50.956;4.242;2024-03-02T12:04:43;15.20;99.90
13148;DHT22;6639;50.956;4.242;2024-03-02T12:07:11;15.40;99.90
13148;DHT22;6639;50.956;4.242;2024-03-02T12:09:38;15.70;99.90
13148;DHT22;6639;50.956;4.242;2024-03-02T12:12:08;15.70;99.90
13148;DHT22;6639;50.956;4.242;2024-03-02T12:14:37;15.80;99.90
13148;DHT22;6639;50.956;4.242;2024-03-02T12:17:05;15.70;99.90
13148;DHT22;6639;50.956;4.242;2024-03-02T12:19:33;15.60;99.90
13148;DHT22;6639;50.956;4.242;2024-03-02T12:22:00;15.10;99.90
13148;DHT22;6639;50.956;4.242;2024-03-02T12:24:28;15.10;99.90
13148;DHT22;6639;50.956;4.242;2024-03-02T12:26:56;15.40;99.90
13148;DHT22;6639;50.956;4.242;2024-03-02T12:29:24;15.40;99.90
13148;DHT22;6639;50.956;4.242;2024-03-02T12:31:52;15.20;99.90
13148;DHT22;6639;50.956;4.242;2024-03-02T12:34:20;15.70;99.90
13148;DHT22;6639;50.956;4.242;2024-03-02T12:36:47;16.10;99.90
13148;DHT22;6639;50.956;4.242;2024-03-02T12:39:16;16.50;99.90
13148;DHT22;6639;50.956;4.242;2024-03-02T12:41:43;16.50;99.90
13148;DHT22;6639;50.956;4.242;2024-03-02T12:44:10;16.80;99.90
13148;DHT22;6639;50.956;4.242;2024-03-02T12:46:37;16.90;99.90
13148;DHT22;6639;50.956;4.242;2024-03-02T12:49:10;16.50;99.90
13148;DHT22;6639;50.956;4.242;2024-03-02T12:51:37;16.10;99.90
13148;DHT22;6639;50.956;4.242;2024-03-02T12:54:06;15.50;99.90
13148;DHT22;6639;50.956;4.242;2024-03-02T12:56:33;15.40;99.90
13148;DHT22;6639;50.956;4.242;2024-03-02T12:59:00;15.60;99.90
13148;DHT22;6639;50.956;4.242;2024-03-02T13:01:27;15.70;99.90
13148;DHT22;6639;50.956;4.242;2024-03-02T13:03:55;15.80;99.90
13148;DHT22;6639;50.956;4.242;2024-03-02T13:06:25;15.80;99.90
13148;DHT22;6639;50.956;4.242;2024-03-02T13:08:57;16.00;99.90
13148;DHT22;6639;50.956;4.242;2024-03-02T13:11:24;16.70;99.90
13148;DHT22;6639;50.956;4.242;2024-03-02T13:14:08;16.70;99.90
13148;DHT22;6639;50.956;4.242;2024-03-02T13:16:38;16.40;99.90
13148;DHT22;6639;50.956;4.242;2024-03-02T13:19:07;15.80;99.90
13148;DHT22;6639;50.956;4.242;2024-03-02T13:21:35;15.80;99.90
13148;DHT22;6639;50.956;4.242;2024-03-02T13:24:03;16.00;99.90
13148;DHT22;6639;50.956;4.242;2024-03-02T13:26:30;16.30;99.90
13148;DHT22;6639;50.956;4.242;2024-03-02T13:28:57;16.10;99.90
13148;DHT22;6639;50.956;4.242;2024-03-02T13:31:24;15.80;99.90
13148;DHT22;6639;50.956;4.242;2024-03-02T13:33:51;15.50;99.90
13148;DHT22;6639;50.956;4.242;2024-03-02T13:36:18;15.40;99.90
13148;DHT22;6639;50.956;4.242;2024-03-02T13:38:46;15.80;99.90
13148;DHT22;6639;50.956;4.242;2024-03-02T13:41:13;16.00;99.90
13148;DHT22;6639;50.956;4.242;2024-03-02T13:43:40;16.00;99.90
13148;DHT22;6639;50.956;4.242;2024-03-02T13:46:07;16.00;99.90
13148;DHT22;6639;50.956;4.242;2024-03-02T13:48:35;16.30;99.90
13148;DHT22;6639;50.956;4.242;2024-03-02T13:51:02;16.60;99.90
13148;DHT22;6639;50.956;4.242;2024-03-02T13:53:30;16.70;99.90
13148;DHT22;6639;50.956;4.242;2024-03-02T13:55:59;16.60;99.90
13148;DHT22;6639;50.956;4.242;2024-03-02T13:58:26;16.80;99.90
13148;DHT22;6639;50.956;4.242;2024-03-02T14:00:55;17.00;99.90
13148;DHT22;6639;50.956;4.242;2024-03-02T14:03:26;17.00;99.90
13148;DHT22;6639;50.956;4.242;2024-03-02T14:05:54;17.10;99.90
13148;DHT22;6639;50.956;4.242;2024-03-02T14:08:21;17.40;99.90
13148;DHT22;6639;50.956;4.242;2024-03-02T14:10:49;17.30;99.90
13148;DHT22;6639;50.956;4.242;2024-03-02T14:13:18;17.30;99.90
13148;DHT22;6639;50.956;4.242;2024-03-02T14:15:45;17.30;99.90
13148;DHT22;6639;50.956;4.242;2024-03-02T14:18:12;17.10;99.90
13148;DHT22;6639;50.956;4.242;2024-03-02T14:20:39;17.00;99.90
13148;DHT22;6639;50.956;4.242;2024-03-02T14:23:07;17.30;99.90
13148;DHT22;6639;50.956;4.242;2024-03-02T14:25:35;17.40;99.90
13148;DHT22;6639;50.956;4.242;2024-03-02T14:28:02;17.70;99.90
13148;DHT22;6639;50.956;4.242;2024-03-02T14:30:31;18.10;99.90
13148;DHT22;6639;50.956;4.242;2024-03-02T14:32:59;17.60;99.90
13148;DHT22;6639;50.956;4.242;2024-03-02T14:35:32;17.50;99.90
13148;DHT22;6639;50.956;4.242;2024-03-02T14:38:05;17.40;99.90
13148;DHT22;6639;50.956;4.242;2024-03-02T14:40:32;17.30;99.90
13148;DHT22;6639;50.956;4.242;2024-03-02T14:42:59;17.50;99.90
13148;DHT22;6639;50.956;4.242;2024-03-02T14:45:26;17.10;99.90
13148;DHT22;6639;50.956;4.242;2024-03-02T14:47:55;16.90;99.90
13148;DHT22;6639;50.956;4.242;2024-03-02T14:50:25;16.50;99.90
13148;DHT22;6639;50.956;4.242;2024-03-02T14:52:52;16.70;99.90
13148;DHT22;6639;50.956;4.242;2024-03-02T14:55:22;16.70;99.90
13148;DHT22;6639;50.956;4.242;2024-03-02T14:57:49;17.00;99.90
13148;DHT22;6639;50.956;4.242;2024-03-02T15:00:17;17.00;99.90
13148;DHT22;6639;50.956;4.242;2024-03-02T15:02:44;17.20;99.90
13148;DHT22;6639;50.956;4.242;2024-03-02T15:05:13;17.30;99.90
13148;DHT22;6639;50.956;4.242;2024-03-02T15:07:40;17.00;99.90
13148;DHT22;6639;50.956;4.242;2024-03-02T15:10:07;17.20;99.90
13148;DHT22;6639;50.956;4.242;2024-03-02T15:12:35;17.10;99.90
13148;DHT22;6639;50.956;4.242;2024-03-02T15:15:02;17.40;99.90
13148;DHT22;6639;50.956;4.242;2024-03-02T15:17:29;17.30;99.90
13148;DHT22;6639;50.956;4.242;2024-03-02T15:19:56;17.20;99.90
13148;DHT22;6639;50.956;4.242;2024-03-02T15:22:25;17.00;99.90
13148;DHT22;6639;50.956;4.242;2024-03-02T15:24:52;17.10;99.90
13148;DHT22;6639;50.956;4.242;2024-03-02T15:27:20;17.30;99.90
13148;DHT22;6639;50.956;4.242;2024-03-02T15:29:56;17.00;99.90
13148;DHT22;6639;50.956;4.242;2024-03-02T15:32:23;16.00;99.90
13148;DHT22;6639;50.956;4.242;2024-03-02T15:34:52;16.20;99.90
13148;DHT22;6639;50.956;4.242;2024-03-02T15:37:19;16.50;99.90
13148;DHT22;6639;50.956;4.242;2024-03-02T15:39:47;16.20;99.90
13148;DHT22;6639;50.956;4.242;2024-03-02T15:42:14;16.80;99.90
13148;DHT22;6639;50.956;4.242;2024-03-02T15:44:41;16.70;99.90
13148;DHT22;6639;50.956;4.242;2024-03-02T15:47:08;16.60;99.90
13148;DHT22;6639;50.956;4.242;2024-03-02T15:49:35;16.40;99.90
13148;DHT22;6639;50.956;4.242;2024-03-02T15:52:03;16.80;99.90